Time;durP1;ratioP1;P1;durP2;ratioP2;P2;SDS_P1;SDS_P2;PMS_P1;PMS_P2;Temp;Humidity;BMP_temperature;BMP_pressure;BME280_temperature;BME280_humidity;BME280_pressure;Samples;Min_cycle;Max_cycle;Signal;HPM_P1;HPM_P2
2023/12/06 00:02:38;;;;;;;66.23;27.70;;;;;0.40;95605.00;;;;8300030;28;20228;-69
2023/12/06 00:06:41;;;;;;;59.17;26.27;;;;;0.50;95605.00;;;;8299109;28;20232;-68
2023/12/06 00:10:45;;;;;;;57.13;25.10;;;;;0.50;95592.00;;;;8300021;28;20287;-69
2023/12/06 00:14:49;;;;;;;57.57;24.03;;;;;0.60;95591.00;;;;8299862;28;20190;-69
2023/12/06 00:18:53;;;;;;;58.57;26.00;;;;;0.60;95594.00;;;;8299495;28;20603;-69
2023/12/06 00:22:56;;;;;;;62.70;25.93;;;;;0.70;95602.00;;;;8298863;28;20222;-68
2023/12/06 00:27:00;;;;;;;59.50;24.37;;;;;0.80;95602.00;;;;8298472;28;20420;-68
2023/12/06 00:31:04;;;;;;;61.83;25.57;;;;;0.80;95593.00;;;;8298024;28;20194;-68
2023/12/06 00:35:09;;;;;;;60.20;25.67;;;;;0.80;95601.00;;;;8299894;28;20200;-68
2023/12/06 00:39:13;;;;;;;62.03;25.50;;;;;0.90;95598.00;;;;8298777;28;20203;-68
2023/12/06 00:43:21;;;;;;;55.93;25.00;;;;;0.90;95604.00;;;;8298062;28;20206;-68
2023/12/06 00:47:25;;;;;;;51.07;22.93;;;;;0.90;95598.00;;;;8297719;28;20203;-68
2023/12/06 00:51:29;;;;;;;47.03;21.30;;;;;1.00;95610.00;;;;8299074;28;20244;-68
2023/12/06 00:55:32;;;;;;;53.87;23.13;;;;;1.00;95602.00;;;;8298536;28;20196;-69
2023/12/06 00:59:35;;;;;;;47.77;21.60;;;;;1.00;95606.00;;;;8298079;28;20219;-69
2023/12/06 01:03:41;;;;;;;48.67;22.23;;;;;1.10;95604.00;;;;8299093;28;20258;-69
2023/12/06 01:07:44;;;;;;;55.87;22.53;;;;;1.10;95616.00;;;;8298776;28;20613;-69
2023/12/06 01:11:47;;;;;;;54.60;22.97;;;;;1.20;95612.00;;;;8298499;28;20282;-69
2023/12/06 01:15:51;;;;;;;50.23;22.23;;;;;1.20;95608.00;;;;8298495;28;20195;-69
2023/12/06 01:19:56;;;;;;;54.73;23.43;;;;;1.20;95608.00;;;;8298536;28;20202;-69
2023/12/06 01:23:59;;;;;;;57.00;22.53;;;;;1.20;95609.00;;;;8297994;28;20234;-70
2023/12/06 01:28:03;;;;;;;56.97;22.20;;;;;1.20;95611.00;;;;8298301;28;20637;-69
2023/12/06 01:32:06;;;;;;;58.37;23.57;;;;;1.30;95611.00;;;;8296850;28;20204;-69
2023/12/06 01:36:11;;;;;;;51.97;21.67;;;;;1.30;95608.00;;;;8297568;28;20201;-69
2023/12/06 01:40:14;;;;;;;47.07;22.37;;;;;1.40;95615.00;;;;8300249;28;20218;-69
2023/12/06 01:44:17;;;;;;;54.13;23.07;;;;;1.40;95617.00;;;;8303652;28;20195;-69
2023/12/06 01:48:22;;;;;;;56.33;22.67;;;;;1.40;95613.00;;;;8302196;28;20216;-69
2023/12/06 01:52:27;;;;;;;52.60;22.17;;;;;1.40;95613.00;;;;8303244;28;20199;-69
2023/12/06 01:56:30;;;;;;;50.43;22.43;;;;;1.40;95610.00;;;;8303929;28;20591;-69
2023/12/06 02:00:42;;;;;;;54.17;23.57;;;;;1.40;95620.00;;;;8303969;28;20643;-70
2023/12/06 02:04:46;;;;;;;54.80;21.10;;;;;1.50;95613.00;;;;8305167;28;20245;-69
2023/12/06 02:08:51;;;;;;;53.80;23.17;;;;;1.50;95615.00;;;;8303060;28;20203;-69
2023/12/06 02:12:54;;;;;;;60.47;23.10;;;;;1.50;95613.00;;;;8303464;28;20194;-71
2023/12/06 02:16:57;;;;;;;48.47;20.50;;;;;1.50;95612.00;;;;8304041;28;20595;-70
2023/12/06 02:21:01;;;;;;;53.87;21.27;;;;;1.50;95617.00;;;;8303335;28;20606;-70
2023/12/06 02:25:11;;;;;;;54.23;22.13;;;;;1.40;95615.00;;;;8303898;28;20196;-70
2023/12/06 02:29:14;;;;;;;50.47;21.93;;;;;1.50;95617.00;;;;8302880;28;20256;-70
2023/12/06 02:33:17;;;;;;;56.13;21.50;;;;;1.50;95614.00;;;;8300890;28;20195;-70
2023/12/06 02:37:23;;;;;;;56.50;22.37;;;;;1.50;95609.00;;;;8302885;28;20633;-70
2023/12/06 02:41:31;;;;;;;47.67;20.93;;;;;1.60;95606.00;;;;8303361;28;20210;-70
2023/12/06 02:45:34;;;;;;;45.60;21.80;;;;;1.60;95612.00;;;;8302489;28;20221;-70
2023/12/06 02:49:37;;;;;;;54.30;22.07;;;;;1.60;95614.00;;;;8301051;28;20203;-70
2023/12/06 02:53:40;;;;;;;51.30;21.10;;;;;1.60;95603.00;;;;8303368;28;20196;-71
2023/12/06 02:57:45;;;;;;;53.93;21.37;;;;;1.60;95605.00;;;;8301619;28;20238;-71
2023/12/06 03:05:51;;;;;;;47.47;20.17;;;;;1.60;95605.00;;;;8270769;28;20300;-74
2023/12/06 03:09:55;;;;;;;51.73;20.97;;;;;1.60;95601.00;;;;8281256;28;20226;-75
2023/12/06 03:14:01;;;;;;;44.77;18.57;;;;;1.60;95599.00;;;;8279863;28;20270;-75
2023/12/06 03:18:04;;;;;;;40.97;17.53;;;;;1.60;95604.00;;;;8282117;28;20205;-75
2023/12/06 03:22:07;;;;;;;39.90;16.97;;;;;1.70;95600.00;;;;8281457;28;20231;-73
2023/12/06 03:26:10;;;;;;;41.40;16.43;;;;;1.70;95598.00;;;;8287237;28;20668;-76
2023/12/06 03:30:15;;;;;;;34.43;13.80;;;;;1.80;95605.00;;;;8283312;28;20212;-77
2023/12/06 03:34:33;;;;;;;29.27;13.13;;;;;1.90;95601.00;;;;8281568;28;20197;-75
2023/12/06 03:38:38;;;;;;;32.30;12.10;;;;;2.00;95606.00;;;;8280651;28;20210;-75
2023/12/06 03:42:41;;;;;;;26.73;11.73;;;;;2.10;95606.00;;;;8280071;28;20697;-77
2023/12/06 03:46:48;;;;;;;25.97;11.10;;;;;2.10;95616.00;;;;8282610;28;20199;-74
2023/12/06 03:50:51;;;;;;;21.90;11.03;;;;;2.20;95603.00;;;;8282587;28;20230;-76
2023/12/06 03:54:54;;;;;;;24.10;11.63;;;;;2.30;95605.00;;;;8283096;28;20213;-74
2023/12/06 03:58:57;;;;;;;22.63;11.17;;;;;2.30;95610.00;;;;8283843;28;20638;-76
2023/12/06 04:03:02;;;;;;;22.40;10.83;;;;;2.40;95601.00;;;;8271057;28;20666;-74
2023/12/06 04:07:05;;;;;;;21.67;10.67;;;;;2.40;95600.00;;;;8250710;28;20212;-75
2023/12/06 04:11:08;;;;;;;21.90;10.93;;;;;2.50;95604.00;;;;8253546;28;20796;-75
2023/12/06 04:15:12;;;;;;;24.13;11.23;;;;;2.50;95609.00;;;;8251753;28;20905;-74
2023/12/06 04:19:16;;;;;;;20.80;10.17;;;;;2.60;95605.00;;;;8249858;28;20236;-78
2023/12/06 04:23:20;;;;;;;18.37;9.63;;;;;2.60;95608.00;;;;8249483;28;20325;-77
2023/12/06 04:27:23;;;;;;;21.50;9.73;;;;;2.70;95609.00;;;;8255231;28;20212;-74
2023/12/06 04:31:27;;;;;;;19.40;8.77;;;;;2.70;95612.00;;;;8247550;28;20198;-77
2023/12/06 04:35:32;;;;;;;13.30;7.97;;;;;2.80;95621.00;;;;8246113;28;20292;-73
2023/12/06 04:39:35;;;;;;;13.37;8.03;;;;;2.80;95616.00;;;;8246726;28;20288;-75
2023/12/06 04:43:41;;;;;;;15.03;7.90;;;;;2.90;95610.00;;;;8240986;28;20277;-77
2023/12/06 04:47:44;;;;;;;14.77;7.43;;;;;2.90;95615.00;;;;8246735;28;20210;-74
2023/12/06 04:51:51;;;;;;;13.77;7.50;;;;;3.00;95628.00;;;;8256217;28;20659;-75
2023/12/06 04:55:55;;;;;;;19.73;8.27;;;;;3.00;95625.00;;;;8248420;28;20289;-75
2023/12/06 04:59:59;;;;;;;13.83;9.47;;;;;3.00;95634.00;;;;8243595;28;20916;-75
2023/12/06 05:04:03;;;;;;;13.57;6.17;;;;;3.00;95638.00;;;;8241992;28;20773;-73
2023/12/06 05:08:08;;;;;;;12.23;6.07;;;;;3.00;95631.00;;;;8244511;28;20362;-72
2023/12/06 05:12:11;;;;;;;12.40;5.70;;;;;3.00;95636.00;;;;8248366;28;20205;-72
2023/12/06 05:16:15;;;;;;;10.10;5.27;;;;;3.00;95636.00;;;;8249982;28;20400;-75
2023/12/06 05:20:18;;;;;;;7.87;5.00;;;;;3.10;95640.00;;;;8254223;28;20197;-72
2023/12/06 05:24:22;;;;;;;7.40;4.27;;;;;3.10;95636.00;;;;8253695;28;20237;-72
2023/12/06 05:28:25;;;;;;;8.40;4.43;;;;;3.10;95633.00;;;;8254216;28;20730;-73
2023/12/06 05:32:28;;;;;;;7.63;4.60;;;;;3.10;95642.00;;;;8252945;28;20202;-74
2023/12/06 05:36:32;;;;;;;7.17;4.13;;;;;3.10;95648.00;;;;8253392;28;20287;-73
2023/12/06 05:40:36;;;;;;;4.83;3.73;;;;;3.10;95640.00;;;;8253063;28;20763;-75
2023/12/06 05:44:39;;;;;;;3.60;2.80;;;;;3.00;95638.00;;;;8254364;28;20248;-76
2023/12/06 05:48:45;;;;;;;3.87;3.10;;;;;3.10;95652.00;;;;8250614;28;20204;-78
2023/12/06 05:52:50;;;;;;;4.47;3.40;;;;;3.00;95648.00;;;;8248999;28;20703;-74
2023/12/06 05:56:57;;;;;;;4.83;3.30;;;;;3.10;95646.00;;;;8254638;28;20332;-75
2023/12/06 06:01:02;;;;;;;18.97;4.13;;;;;3.10;95648.00;;;;8257818;28;20686;-75
2023/12/06 06:05:08;;;;;;;4.13;3.00;;;;;3.10;95648.00;;;;8264344;28;20241;-75
2023/12/06 06:09:11;;;;;;;2.50;2.30;;;;;3.10;95649.00;;;;8261084;28;20202;-75
2023/12/06 06:13:15;;;;;;;4.20;2.90;;;;;3.10;95650.00;;;;8256277;28;20512;-78
2023/12/06 06:17:18;;;;;;;3.00;2.60;;;;;3.10;95647.00;;;;8258336;28;20218;-76
2023/12/06 06:21:22;;;;;;;3.63;2.63;;;;;3.10;95653.00;;;;8256934;28;20215;-75
2023/12/06 06:25:25;;;;;;;2.63;2.43;;;;;3.00;95661.00;;;;8252894;28;20290;-75
2023/12/06 06:29:29;;;;;;;3.53;1.90;;;;;3.10;95664.00;;;;8260718;28;20205;-75
2023/12/06 06:33:35;;;;;;;1.97;1.87;;;;;3.00;95661.00;;;;8254120;28;21002;-77
2023/12/06 06:37:38;;;;;;;6.30;2.20;;;;;3.00;95657.00;;;;8266026;28;20252;-79
2023/12/06 06:41:42;;;;;;;2.77;2.07;;;;;3.00;95661.00;;;;8253597;28;20233;-76
2023/12/06 06:45:46;;;;;;;2.40;2.20;;;;;3.00;95669.00;;;;8264985;28;20317;-76
2023/12/06 06:49:49;;;;;;;2.50;2.27;;;;;3.00;95670.00;;;;8258758;28;20202;-76
2023/12/06 06:53:52;;;;;;;2.03;1.93;;;;;3.10;95667.00;;;;8270540;28;20212;-75
2023/12/06 06:57:56;;;;;;;1.80;1.70;;;;;3.10;95673.00;;;;8247207;28;20204;-77
2023/12/06 07:02:02;;;;;;;1.70;1.60;;;;;3.10;95676.00;;;;8262209;28;20205;-74
2023/12/06 07:06:06;;;;;;;2.63;2.00;;;;;3.10;95681.00;;;;8257106;28;20205;-73
2023/12/06 07:10:09;;;;;;;3.30;1.90;;;;;3.20;95686.00;;;;8258229;28;20202;-78
2023/12/06 07:14:13;;;;;;;1.97;1.87;;;;;3.20;95684.00;;;;8255647;28;20201;-79
2023/12/06 07:18:18;;;;;;;1.90;1.80;;;;;3.30;95691.00;;;;8255632;28;20212;-73
2023/12/06 07:22:22;;;;;;;2.23;1.90;;;;;3.30;95694.00;;;;8252684;28;20285;-75
2023/12/06 07:26:25;;;;;;;2.00;1.90;;;;;3.30;95700.00;;;;8255281;28;20206;-78
2023/12/06 07:30:28;;;;;;;1.97;1.87;;;;;3.30;95699.00;;;;8255264;28;20325;-76
2023/12/06 07:34:34;;;;;;;2.27;2.10;;;;;3.40;95701.00;;;;8254958;28;20198;-77
2023/12/06 07:38:53;;;;;;;2.53;2.20;;;;;3.40;95710.00;;;;8255868;28;20217;-75
2023/12/06 07:42:56;;;;;;;2.00;1.90;;;;;3.50;95711.00;;;;8253335;28;20324;-74
2023/12/06 07:47:00;;;;;;;2.07;1.90;;;;;3.50;95716.00;;;;8251387;28;20212;-77
2023/12/06 07:51:05;;;;;;;1.97;1.87;;;;;3.60;95721.00;;;;8251480;28;20293;-74
2023/12/06 07:55:10;;;;;;;1.80;1.70;;;;;3.70;95722.00;;;;8247058;28;20233;-73
2023/12/06 07:59:13;;;;;;;2.10;2.00;;;;;3.70;95727.00;;;;8248330;28;20197;-74
2023/12/06 08:03:18;;;;;;;2.00;1.90;;;;;3.80;95727.00;;;;8249348;28;20819;-73
2023/12/06 08:07:24;;;;;;;2.53;2.00;;;;;3.70;95731.00;;;;8248297;28;20213;-71
2023/12/06 08:11:28;;;;;;;2.10;2.00;;;;;3.80;95732.00;;;;8249663;28;20249;-76
2023/12/06 08:15:31;;;;;;;2.57;2.37;;;;;3.80;95735.00;;;;8254306;28;20877;-72
2023/12/06 08:19:34;;;;;;;2.60;2.40;;;;;3.80;95744.00;;;;8261672;28;20708;-75
2023/12/06 08:23:39;;;;;;;3.47;2.20;;;;;3.80;95737.00;;;;8256015;28;20233;-78
2023/12/06 08:27:43;;;;;;;4.77;2.60;;;;;3.80;95748.00;;;;8253330;28;20229;-76
2023/12/06 08:31:46;;;;;;;2.60;2.40;;;;;3.80;95744.00;;;;8250948;28;20204;-76
2023/12/06 08:35:51;;;;;;;2.60;2.40;;;;;3.80;95748.00;;;;8252770;28;20199;-72
2023/12/06 08:39:56;;;;;;;2.93;2.30;;;;;3.90;95751.00;;;;8249827;28;20198;-73
2023/12/06 08:43:59;;;;;;;2.80;2.60;;;;;3.90;95754.00;;;;8251112;28;20757;-71
2023/12/06 08:48:02;;;;;;;3.70;2.80;;;;;3.90;95748.00;;;;8248030;28;20289;-72
2023/12/06 08:52:07;;;;;;;2.70;2.50;;;;;3.90;95757.00;;;;8252245;28;20194;-71
2023/12/06 08:56:13;;;;;;;7.67;3.20;;;;;3.90;95767.00;;;;8248887;28;20238;-73
2023/12/06 09:00:17;;;;;;;3.53;2.80;;;;;3.90;95772.00;;;;8251094;28;20773;-73
2023/12/06 09:04:20;;;;;;;3.07;2.77;;;;;4.00;95764.00;;;;8247436;28;20233;-74
2023/12/06 09:08:24;;;;;;;3.30;3.00;;;;;4.00;95773.00;;;;8254564;28;20564;-72
2023/12/06 09:12:28;;;;;;;4.13;3.50;;;;;4.10;95768.00;;;;8260595;28;20206;-71
2023/12/06 09:16:31;;;;;;;3.17;2.97;;;;;4.20;95779.00;;;;8259380;28;20202;-71
2023/12/06 09:20:36;;;;;;;4.07;3.43;;;;;4.40;95777.00;;;;8252987;28;21615;-72
2023/12/06 09:24:40;;;;;;;3.60;3.30;;;;;4.50;95782.00;;;;8243982;28;20233;-70
2023/12/06 09:28:44;;;;;;;39.60;16.07;;;;;4.60;95785.00;;;;8239536;28;20225;-75
2023/12/06 09:32:48;;;;;;;8.70;6.17;;;;;4.60;95785.00;;;;8236268;28;20241;-73
2023/12/06 09:36:51;;;;;;;91.47;41.60;;;;;4.70;95788.00;;;;8252937;28;20225;-70
2023/12/06 09:40:54;;;;;;;44.13;20.27;;;;;4.70;95790.00;;;;8249646;28;20657;-71
2023/12/06 09:45:01;;;;;;;310.50;101.10;;;;;4.70;95800.00;;;;8259351;28;20360;-69
2023/12/06 09:49:04;;;;;;;47.87;20.70;;;;;4.70;95801.00;;;;8252307;28;20206;-72
2023/12/06 09:53:07;;;;;;;14.83;10.40;;;;;4.70;95800.00;;;;8249221;28;20205;-75
2023/12/06 09:57:12;;;;;;;9.87;6.57;;;;;4.60;95806.00;;;;8245429;28;20202;-71
2023/12/06 10:01:16;;;;;;;7.47;5.70;;;;;4.50;95789.00;;;;8254008;28;20202;-74
2023/12/06 10:05:19;;;;;;;9.63;5.50;;;;;4.50;95797.00;;;;8256274;28;20325;-71
2023/12/06 10:09:29;;;;;;;9.60;7.57;;;;;4.40;95797.00;;;;8249319;28;20206;-71
2023/12/06 10:13:34;;;;;;;7.97;7.17;;;;;4.40;95790.00;;;;8262447;28;20209;-70
2023/12/06 10:17:39;;;;;;;8.63;6.17;;;;;4.50;95800.00;;;;8258770;28;20722;-74
2023/12/06 10:21:42;;;;;;;9.93;6.80;;;;;4.60;95792.00;;;;8261724;28;20297;-74
2023/12/06 10:25:47;;;;;;;9.57;6.83;;;;;4.60;95794.00;;;;8256803;28;20230;-73
2023/12/06 10:29:51;;;;;;;11.37;7.10;;;;;4.60;95781.00;;;;8256719;28;20206;-71
2023/12/06 10:33:57;;;;;;;8.03;5.73;;;;;4.60;95795.00;;;;8260751;28;20206;-72
2023/12/06 10:38:01;;;;;;;10.67;6.00;;;;;4.60;95794.00;;;;8255398;28;20202;-70
2023/12/06 10:42:12;;;;;;;9.40;6.83;;;;;4.60;95794.00;;;;8255680;28;20289;-71
2023/12/06 10:46:17;;;;;;;7.47;5.87;;;;;4.70;95792.00;;;;8258262;28;20246;-70
2023/12/06 10:50:23;;;;;;;7.67;6.07;;;;;4.70;95788.00;;;;8255235;28;20202;-70
2023/12/06 10:54:26;;;;;;;7.07;5.13;;;;;4.80;95785.00;;;;8255419;28;20224;-71
2023/12/06 10:58:31;;;;;;;16.40;13.20;;;;;4.90;95787.00;;;;8258266;28;20208;-73
2023/12/06 11:02:36;;;;;;;10.67;7.43;;;;;5.10;95778.00;;;;8269101;28;20289;-71
2023/12/06 11:06:50;;;;;;;8.10;5.00;;;;;5.20;95786.00;;;;8259306;28;20976;-71
2023/12/06 11:11:18;;;;;;;7.30;5.07;;;;;5.20;95784.00;;;;8249973;28;20203;-74
2023/12/06 11:15:38;;;;;;;10.13;4.80;;;;;5.10;95785.00;;;;8253192;28;20655;-71
2023/12/06 11:19:42;;;;;;;8.10;5.30;;;;;4.90;95788.00;;;;8256612;28;20206;-72
2023/12/06 11:23:47;;;;;;;6.27;5.20;;;;;4.70;95785.00;;;;8254635;28;20234;-70
2023/12/06 11:27:51;;;;;;;8.97;4.67;;;;;4.60;95781.00;;;;8257368;28;20671;-73
2023/12/06 11:31:58;;;;;;;210.00;74.97;;;;;4.60;95785.00;;;;8249047;28;20230;-73
2023/12/06 11:36:01;;;;;;;719.50;323.83;;;;;4.60;95790.00;;;;8250177;28;20222;-72
2023/12/06 11:40:18;;;;;;;211.03;92.33;;;;;4.50;95793.00;;;;8264566;28;20207;-72
2023/12/06 11:44:22;;;;;;;619.83;288.97;;;;;4.40;95798.00;;;;8260003;28;20217;-73
2023/12/06 11:48:25;;;;;;;197.80;65.93;;;;;4.30;95792.00;;;;8253840;28;20207;-73
2023/12/06 11:52:28;;;;;;;1138.70;423.77;;;;;4.30;95791.00;;;;8251446;28;20278;-74
2023/12/06 11:56:33;;;;;;;528.20;225.70;;;;;4.20;95788.00;;;;8253904;28;20198;-73
2023/12/06 12:00:40;;;;;;;219.83;96.07;;;;;4.20;95802.00;;;;8259922;28;20251;-73
2023/12/06 12:04:44;;;;;;;839.90;523.00;;;;;4.20;95804.00;;;;8258765;28;20651;-72
2023/12/06 12:08:49;;;;;;;220.50;120.93;;;;;4.20;95800.00;;;;8249577;28;20206;-71
2023/12/06 12:12:54;;;;;;;705.03;462.37;;;;;4.30;95796.00;;;;8253847;28;20213;-71
2023/12/06 12:16:57;;;;;;;87.77;53.70;;;;;4.30;95808.00;;;;8246630;28;20268;-71
2023/12/06 12:21:08;;;;;;;103.47;87.97;;;;;4.30;95814.00;;;;8254327;28;20199;-71
2023/12/06 12:25:11;;;;;;;262.07;220.07;;;;;4.30;95806.00;;;;8247573;28;20225;-72
2023/12/06 12:29:18;;;;;;;31.03;27.93;;;;;4.40;95808.00;;;;8251536;28;20218;-71
2023/12/06 12:33:22;;;;;;;38.30;34.47;;;;;4.30;95808.00;;;;8253268;28;20289;-72
2023/12/06 12:37:26;;;;;;;16.43;14.67;;;;;4.20;95802.00;;;;8248717;28;20213;-71
2023/12/06 12:41:29;;;;;;;11.53;9.27;;;;;4.20;95802.00;;;;8244429;28;20209;-71
2023/12/06 12:45:36;;;;;;;19.70;14.73;;;;;4.30;95800.00;;;;8254613;28;20233;-72
2023/12/06 12:49:39;;;;;;;10.23;8.83;;;;;4.30;95805.00;;;;8253880;28;20200;-72
2023/12/06 12:53:44;;;;;;;10.13;7.73;;;;;4.20;95812.00;;;;8247646;28;20226;-72
2023/12/06 12:57:48;;;;;;;10.57;6.73;;;;;4.20;95809.00;;;;8241551;28;20234;-72
2023/12/06 13:01:53;;;;;;;10.23;7.73;;;;;4.20;95803.00;;;;8245445;28;20296;-71
2023/12/06 13:05:57;;;;;;;8.97;6.90;;;;;4.10;95816.00;;;;8246503;28;20233;-72
2023/12/06 13:10:01;;;;;;;11.17;6.20;;;;;4.10;95813.00;;;;8248048;28;20208;-71
2023/12/06 13:14:04;;;;;;;8.30;7.17;;;;;4.10;95829.00;;;;8240197;28;20253;-72
2023/12/06 13:18:09;;;;;;;24.00;18.13;;;;;4.10;95821.00;;;;8245746;28;20212;-71
2023/12/06 13:22:15;;;;;;;13.37;11.47;;;;;4.10;95831.00;;;;8246191;28;20202;-73
2023/12/06 13:26:25;;;;;;;13.87;10.37;;;;;4.10;95830.00;;;;8243939;28;20802;-72
2023/12/06 13:30:29;;;;;;;9.10;7.10;;;;;4.10;95832.00;;;;8241461;28;20203;-72
2023/12/06 13:34:33;;;;;;;7.40;5.30;;;;;4.10;95833.00;;;;8248910;28;20629;-72
2023/12/06 13:38:39;;;;;;;5.03;4.50;;;;;4.10;95839.00;;;;8253922;28;20198;-72
2023/12/06 13:42:42;;;;;;;6.33;4.77;;;;;4.10;95841.00;;;;8249008;28;20260;-72
2023/12/06 13:46:45;;;;;;;4.47;3.03;;;;;4.10;95844.00;;;;8250940;28;20317;-71
2023/12/06 13:50:50;;;;;;;5.93;4.97;;;;;4.00;95857.00;;;;8255029;28;20222;-72
2023/12/06 13:54:53;;;;;;;3.57;3.20;;;;;3.90;95860.00;;;;8257026;28;20250;-70
2023/12/06 13:58:56;;;;;;;4.87;3.73;;;;;3.80;95865.00;;;;8251114;28;20229;-70
2023/12/06 14:02:59;;;;;;;5.67;4.30;;;;;3.80;95865.00;;;;8241420;28;20238;-72
2023/12/06 14:07:07;;;;;;;4.53;3.80;;;;;3.70;95871.00;;;;8247629;28;20773;-72
2023/12/06 14:11:10;;;;;;;5.13;3.93;;;;;3.70;95870.00;;;;8248656;28;20265;-71
2023/12/06 14:15:15;;;;;;;4.00;2.73;;;;;3.70;95869.00;;;;8263401;28;20540;-70
2023/12/06 14:19:18;;;;;;;5.37;4.00;;;;;3.60;95873.00;;;;8270682;28;20661;-70
2023/12/06 14:23:23;;;;;;;4.27;3.73;;;;;3.60;95873.00;;;;8271130;28;20191;-72
2023/12/06 14:27:27;;;;;;;4.77;3.80;;;;;3.60;95881.00;;;;8271859;28;20620;-72
2023/12/06 14:31:31;;;;;;;4.60;3.83;;;;;3.60;95886.00;;;;8269931;28;20209;-71
2023/12/06 14:35:34;;;;;;;4.33;3.90;;;;;3.50;95885.00;;;;8266658;28;20643;-72
2023/12/06 14:39:39;;;;;;;5.30;3.80;;;;;3.40;95889.00;;;;8270528;28;20202;-72
2023/12/06 14:43:43;;;;;;;3.80;3.50;;;;;3.40;95882.00;;;;8270832;28;20202;-71
2023/12/06 14:47:47;;;;;;;5.77;3.90;;;;;3.30;95898.00;;;;8269318;28;20674;-73
2023/12/06 14:51:51;;;;;;;4.33;3.40;;;;;3.20;95892.00;;;;8291360;28;20212;-73
2023/12/06 14:55:56;;;;;;;4.43;4.03;;;;;3.20;95903.00;;;;8300320;28;20198;-73
2023/12/06 14:59:59;;;;;;;7.23;4.27;;;;;3.10;95907.00;;;;8299839;28;20296;-74
2023/12/06 15:04:03;;;;;;;6.10;3.93;;;;;3.10;95913.00;;;;8302024;28;20232;-74
2023/12/06 15:08:06;;;;;;;4.70;3.80;;;;;3.10;95917.00;;;;8300651;28;20225;-72
2023/12/06 15:12:11;;;;;;;5.23;4.17;;;;;3.00;95923.00;;;;8301550;28;20206;-74
2023/12/06 15:16:16;;;;;;;5.87;4.47;;;;;3.00;95926.00;;;;8301192;28;20547;-73
2023/12/06 15:20:19;;;;;;;3.63;3.23;;;;;3.00;95926.00;;;;8300849;28;20201;-73
2023/12/06 15:24:22;;;;;;;6.13;4.47;;;;;3.00;95942.00;;;;8302271;28;20208;-73
2023/12/06 15:28:27;;;;;;;4.97;4.03;;;;;3.00;95941.00;;;;8301206;28;20255;-75
2023/12/06 15:32:30;;;;;;;5.37;4.37;;;;;3.00;95935.00;;;;8300882;28;20205;-75
2023/12/06 15:36:33;;;;;;;7.33;5.37;;;;;2.90;95944.00;;;;8300860;28;20197;-74
2023/12/06 15:40:36;;;;;;;4.77;3.97;;;;;2.90;95937.00;;;;8301108;28;20280;-74
2023/12/06 15:44:46;;;;;;;5.43;4.13;;;;;2.80;95955.00;;;;8300855;28;20186;-74
2023/12/06 15:48:50;;;;;;;6.43;4.90;;;;;2.80;95953.00;;;;8301432;28;20308;-74
2023/12/06 15:52:54;;;;;;;7.40;4.97;;;;;2.80;95964.00;;;;8300809;28;20186;-74
2023/12/06 15:56:57;;;;;;;7.13;5.40;;;;;2.70;95974.00;;;;8300993;28;20190;-74
2023/12/06 16:01:02;;;;;;;4.13;3.73;;;;;2.70;95973.00;;;;8299556;28;20208;-74
2023/12/06 16:05:09;;;;;;;6.33;4.27;;;;;2.70;95978.00;;;;8301156;28;20275;-74
2023/12/06 16:09:15;;;;;;;4.67;3.63;;;;;2.60;95986.00;;;;8300457;28;20660;-75
2023/12/06 16:13:18;;;;;;;6.77;4.43;;;;;2.60;95996.00;;;;8299085;28;20592;-74
2023/12/06 16:17:22;;;;;;;972.77;241.03;;;;;2.60;95991.00;;;;8267712;28;20243;-76
2023/12/06 16:21:27;;;;;;;79.73;36.33;;;;;2.60;95986.00;;;;8267714;28;20231;-76
2023/12/06 16:25:30;;;;;;;16.80;10.07;;;;;2.50;96004.00;;;;8266177;28;20194;-75
2023/12/06 16:29:33;;;;;;;17.27;11.60;;;;;2.50;96012.00;;;;8264770;28;20618;-73
2023/12/06 16:33:38;;;;;;;7.60;5.43;;;;;2.60;96012.00;;;;8266998;28;20204;-72
2023/12/06 16:37:43;;;;;;;7.17;5.40;;;;;2.60;96014.00;;;;8267189;28;20575;-72
2023/12/06 16:41:46;;;;;;;12.03;7.27;;;;;2.60;96005.00;;;;8265615;28;20267;-71
2023/12/06 16:45:50;;;;;;;9.87;6.03;;;;;2.60;96029.00;;;;8266528;28;20202;-70
2023/12/06 16:49:55;;;;;;;13.10;8.60;;;;;2.50;96032.00;;;;8265886;28;20205;-72
2023/12/06 16:53:58;;;;;;;13.77;8.37;;;;;2.60;96029.00;;;;8265809;28;20520;-72
2023/12/06 16:58:02;;;;;;;9.87;6.97;;;;;2.60;96045.00;;;;8266720;28;20664;-72
2023/12/06 17:02:07;;;;;;;7.03;5.10;;;;;2.60;96053.00;;;;8266103;28;20195;-72
2023/12/06 17:06:12;;;;;;;14.17;8.77;;;;;2.60;96072.00;;;;8267435;28;20252;-71
2023/12/06 17:10:15;;;;;;;14.93;8.97;;;;;2.60;96071.00;;;;8269245;28;20202;-75
2023/12/06 17:14:19;;;;;;;15.27;8.90;;;;;2.60;96070.00;;;;8276324;28;20206;-75
2023/12/06 17:18:22;;;;;;;15.03;7.57;;;;;2.60;96067.00;;;;8275960;28;20245;-75
2023/12/06 17:22:27;;;;;;;14.57;8.53;;;;;2.70;96078.00;;;;8276164;28;20191;-76
2023/12/06 17:26:33;;;;;;;14.23;7.93;;;;;2.70;96092.00;;;;8276974;28;20328;-76
2023/12/06 17:30:49;;;;;;;8.53;5.80;;;;;2.70;96086.00;;;;8276429;28;20190;-71
2023/12/06 17:34:52;;;;;;;14.83;9.10;;;;;2.70;96094.00;;;;8277698;28;20212;-71
2023/12/06 17:38:56;;;;;;;12.07;7.13;;;;;2.70;96105.00;;;;8276771;28;20248;-71
2023/12/06 17:42:59;;;;;;;8.23;4.67;;;;;2.70;96104.00;;;;8276415;28;20291;-71
2023/12/06 17:47:02;;;;;;;14.77;8.63;;;;;2.70;96114.00;;;;8277147;28;20288;-71
2023/12/06 17:51:06;;;;;;;23.40;8.53;;;;;2.70;96115.00;;;;8276634;28;20237;-72
2023/12/06 17:55:10;;;;;;;11.30;7.40;;;;;2.70;96127.00;;;;8276138;28;20283;-72
2023/12/06 17:59:14;;;;;;;16.00;8.67;;;;;2.80;96125.00;;;;8276451;28;20197;-73
2023/12/06 18:03:17;;;;;;;17.43;9.00;;;;;2.80;96137.00;;;;8276511;28;20568;-72
2023/12/06 18:07:20;;;;;;;20.43;11.40;;;;;2.80;96139.00;;;;8275812;28;20261;-72
2023/12/06 18:11:25;;;;;;;13.77;8.13;;;;;2.80;96142.00;;;;8276806;28;20237;-73
2023/12/06 18:15:28;;;;;;;10.43;6.63;;;;;2.80;96153.00;;;;8276224;28;20229;-72
2023/12/06 18:19:31;;;;;;;17.47;9.67;;;;;2.80;96153.00;;;;8274852;28;20206;-72
2023/12/06 18:23:35;;;;;;;10.73;6.83;;;;;2.90;96162.00;;;;8271221;28;20292;-72
2023/12/06 18:27:40;;;;;;;15.43;9.23;;;;;2.80;96168.00;;;;8270278;28;20274;-72
2023/12/06 18:31:44;;;;;;;15.10;9.43;;;;;2.90;96169.00;;;;8271458;28;20256;-72
2023/12/06 18:35:52;;;;;;;15.17;8.43;;;;;2.90;96175.00;;;;8270379;28;20253;-72
2023/12/06 18:39:55;;;;;;;16.43;8.57;;;;;2.90;96174.00;;;;8270176;28;20186;-72
2023/12/06 18:44:15;;;;;;;12.70;8.67;;;;;2.90;96179.00;;;;8271187;28;20252;-72
2023/12/06 18:48:18;;;;;;;11.30;7.17;;;;;2.90;96183.00;;;;8270940;28;20249;-72
2023/12/06 18:52:21;;;;;;;16.20;9.97;;;;;2.90;96203.00;;;;8270201;28;20552;-73
2023/12/06 18:56:26;;;;;;;13.80;7.83;;;;;2.90;96206.00;;;;8269977;28;20202;-72
2023/12/06 19:00:31;;;;;;;16.20;10.17;;;;;2.90;96208.00;;;;8270611;28;20702;-73
2023/12/06 19:04:39;;;;;;;17.30;10.13;;;;;3.00;96211.00;;;;8269924;28;20218;-73
2023/12/06 19:08:42;;;;;;;11.20;6.60;;;;;3.00;96211.00;;;;8269552;28;20232;-73
2023/12/06 19:12:45;;;;;;;18.53;10.17;;;;;3.00;96214.00;;;;8268905;28;20202;-73
2023/12/06 19:16:50;;;;;;;16.73;8.27;;;;;3.00;96213.00;;;;8269471;28;20197;-73
2023/12/06 19:20:53;;;;;;;11.33;6.97;;;;;3.00;96217.00;;;;8268296;28;20205;-74
2023/12/06 19:24:57;;;;;;;16.97;9.83;;;;;3.00;96214.00;;;;8270103;28;20636;-74
2023/12/06 19:29:00;;;;;;;16.87;10.70;;;;;2.90;96213.00;;;;8269100;28;20538;-74
2023/12/06 19:33:04;;;;;;;18.27;9.97;;;;;2.90;96220.00;;;;8268408;28;20300;-74
2023/12/06 19:37:08;;;;;;;18.23;10.23;;;;;2.90;96219.00;;;;8268495;28;20195;-74
2023/12/06 19:41:11;;;;;;;22.43;10.67;;;;;2.90;96222.00;;;;8268311;28;20251;-74
2023/12/06 19:45:15;;;;;;;21.70;12.20;;;;;3.00;96220.00;;;;8269443;28;20754;-74
2023/12/06 19:49:19;;;;;;;21.97;11.70;;;;;3.00;96230.00;;;;8268513;28;20560;-74
2023/12/06 19:53:22;;;;;;;21.07;11.23;;;;;3.00;96236.00;;;;8268175;28;20202;-74
2023/12/06 19:57:26;;;;;;;23.17;12.27;;;;;3.00;96241.00;;;;8268486;28;20198;-74
2023/12/06 20:01:30;;;;;;;19.40;10.30;;;;;3.00;96248.00;;;;8268169;28;20201;-74
2023/12/06 20:05:34;;;;;;;23.73;11.77;;;;;3.00;96247.00;;;;8269721;28;20667;-73
2023/12/06 20:09:42;;;;;;;24.40;11.90;;;;;3.00;96257.00;;;;8267204;28;20214;-74
2023/12/06 20:13:45;;;;;;;23.47;11.50;;;;;3.00;96260.00;;;;8266599;28;20208;-74
2023/12/06 20:17:49;;;;;;;22.77;12.17;;;;;3.00;96262.00;;;;8266965;28;20236;-74
2023/12/06 20:21:53;;;;;;;24.03;11.90;;;;;3.00;96270.00;;;;8267135;28;20206;-74
2023/12/06 20:25:57;;;;;;;19.67;10.40;;;;;3.00;96271.00;;;;8267161;28;20552;-73
2023/12/06 20:30:00;;;;;;;21.50;11.50;;;;;3.00;96272.00;;;;8267312;28;20226;-73